West Rancho Bernardo (500) Station Data

Red Flag Warning: No
Fire Weather Zone: 250
SDGE Region: North East
Lat/Lon: 33.031/-117.122

Observations

Time Wind Speed/Gust Temp(F) RH Fuel Moist Fuel Temp(F) Dewpt(F) Tmax(F) Tmin(F) Accum Precip 10-min Precip SL Press(mb)
2/27 11:40pm 276 13 G 18 50° 100% - - 50° 55.1° 46° - - -
2/27 11:20pm 270 12 G 17 51° 100% - - 51° 55.1° 46° - - -
2/27 11:10pm 275 13 G 18 51° 100% - - 51° 55.1° 46° - - -
2/27 11:00pm 253 12 G 17 52° 100% - - 52° 55.1° 46° - - -
2/27 10:50pm 248 8 G 12 52° 100% - - 52° 55.1° 46° - - -
2/27 10:40pm 250 7 G 9 52° 100% - - 52° 55.1° 46° - - -
2/27 10:30pm 251 6 G 8 52° 100% - - 52° 55.1° 46° - - -
2/27 10:20pm 265 7 G 13 52° 100% - - 52° 55.1° 46° - - -
2/27 10:10pm 289 9 G 14 52° 100% - - 52° 55.1° 46° - - -
2/27 10:00pm 266 9 G 13 52° 100% - - 52° 55.1° 46° - - -
2/27 9:50pm 269 9 G 14 52° 100% - - 52° 55.1° 46° - - -
2/27 9:40pm 287 8 G 12 52° 100% - - 52° 55.1° 46° - - -
2/27 9:30pm 288 9 G 13 52° 100% - - 52° 55.1° 46° - - -
2/27 9:20pm 252 14 G 26 53° 100% - - 53° 55.1° 46° - - -
2/27 9:10pm 217 16 G 31 54° 100% - - 54° 55.1° 46° - - -
2/27 9:00pm 216 14 G 20 54° 100% - - 54° 55.1° 46° - - -
2/27 8:50pm 215 11 G 21 53° 100% - - 53° 55.1° 46° - - -
2/27 8:40pm 229 10 G 17 53° 100% - - 53° 55.1° 46° - - -
2/27 8:30pm 241 6 G 9 53° 100% - - 53° 55.1° 46° - - -
2/27 8:20pm 262 9 G 11 53° 100% - - 53° 55.1° 46° - - -
2/27 8:10pm 262 12 G 17 54° 100% - - 54° 55.1° 46° - - -
2/27 8:00pm 232 15 G 23 54° 100% - - 54° 55.1° 46° - - -
2/27 7:50pm 220 13 G 23 54° 100% - - 54° 55.1° 46° - - -
2/27 7:40pm 230 14 G 20 54° 100% - - 54° 55.1° 46° - - -
2/27 7:20pm 221 18 G 26 54° 100% - - 54° 55.1° 46° - - -
2/27 7:10pm 210 15 G 26 54° 100% - - 54° 55.1° 46° - - -
2/27 7:00pm 210 13 G 17 54° 100% - - 54° 55.1° 46° - - -
2/27 6:40pm 229 13 G 20 54° 100% - - 54° 55.1° 46° - - -
2/27 6:30pm 218 12 G 16 54° 100% - - 54° 55.1° 46° - - -
2/27 6:20pm 219 12 G 17 54° 100% - - 54° 55.1° 46° - - -
2/27 6:00pm 225 14 G 20 54° 100% - - 54° 55.1° 46° - - -
2/27 5:50pm 226 16 G 25 54° 100% - - 54° 55.1° 46° - - -
2/27 5:40pm 228 17 G 24 54° 100% - - 54° 55.1° 46° - - -
2/27 5:30pm 237 16 G 23 54° 100% - - 54° 55.1° 46° - - -
2/27 5:20pm 240 16 G 24 54° 100% - - 54° 55.1° 46° - - -
2/27 5:00pm 230 18 G 27 54° 100% - - 54° 55.1° 46° - - -
2/27 4:50pm 216 16 G 25 54° 100% - - 54° 55.1° 46° - - -
2/27 4:40pm 209 16 G 24 54° 100% - - 54° 55.1° 46° - - -
2/27 4:30pm 204 16 G 22 54° 100% - - 54° 55.1° 46° - - -
2/27 4:20pm 212 16 G 23 54° 100% - - 54° 55.1° 46° - - -
2/27 4:10pm 221 14 G 21 54° 100% - - 54° 55.1° 46° - - -
2/27 4:00pm 219 16 G 26 55° 100% - - 55° 55.1° 46° - - -
2/27 3:50pm 223 18 G 24 55° 100% - - 55° 55.1° 46° - - -
2/27 3:40pm 239 15 G 22 55° 100% - - 55° 55.1° 46° - - -
2/27 3:30pm 202 15 G 27 55° 100% - - 55° 55.1° 46° - - -
2/27 3:20pm 208 16 G 22 55° 100% - - 55° 55.1° 46° - - -
2/27 3:10pm 199 17 G 27 55° 100% - - 55° 55.1° 46° - - -
2/27 3:00pm 202 15 G 28 55° 100% - - 55° 55.1° 46° - - -
2/27 2:50pm 205 16 G 26 55° 100% - - 55° 55.1° 46° - - -
2/27 2:40pm 194 18 G 33 55° 100% - - 55° 55.1° 46° - - -
2/27 2:30pm 200 18 G 27 55° 100% - - 55° 55.1° 46° - - -
2/27 2:20pm 210 20 G 28 55° 100% - - 55° 55.1° 46° - - -
2/27 2:10pm 208 20 G 31 55° 100% - - 55° 55.1° 46° - - -
2/27 2:00pm 204 19 G 30 55° 100% - - 55° 55.1° 46° - - -
2/27 1:50pm 213 18 G 29 55° 100% - - 55° 55.1° 46° - - -
2/27 1:40pm 213 16 G 25 55° 100% - - 55° 55.1° 46° - - -
2/27 1:30pm 224 20 G 32 55° 100% - - 55° 55.1° 46° - - -
2/27 1:20pm 221 18 G 27 55° 100% - - 55° 55.1° 46° - - -
2/27 1:10pm 213 15 G 20 55° 100% - - 55° 55.1° 46° - - -
2/27 1:00pm 212 15 G 21 55° 100% - - 55° 55.1° 46° - - -
2/27 12:50pm 217 17 G 24 55° 100% - - 55° 55.1° 46° - - -
2/27 12:40pm 218 22 G 30 55° 100% - - 55° 55.1° 46° - - -
2/27 12:30pm 214 21 G 31 55° 100% - - 55° 55.1° 46° - - -
2/27 12:20pm 216 15 G 23 55° 100% - - 55° 55.1° 46° - - -
2/27 12:10pm 211 14 G 20 54° 100% - - 54° 55.1° 46° - - -
2/27 12:00pm 207 17 G 25 54° 100% - - 54° 55.1° 46° - - -
2/27 11:50am 210 16 G 25 54° 100% - - 54° 55.1° 46° - - -
2/27 11:40am 214 20 G 32 54° 100% - - 54° 55.1° 46° - - -
2/27 11:30am 204 16 G 25 54° 100% - - 54° 55.1° 46° - - -
2/27 11:20am 196 18 G 27 54° 100% - - 54° 55.1° 46° - - -
2/27 11:10am 199 16 G 26 54° 100% - - 54° 55.1° 46° - - -
2/27 11:00am 198 12 G 20 54° 100% - - 54° 55.1° 46° - - -
2/27 10:50am 205 12 G 19 54° 100% - - 54° 55.1° 46° - - -
2/27 10:40am 217 15 G 22 54° 100% - - 54° 55.1° 46° - - -
2/27 10:30am 211 15 G 27 54° 100% - - 54° 55.1° 46° - - -
2/27 10:20am 224 13 G 19 54° 100% - - 55° 55.1° 46° - - -
2/27 10:10am 231 14 G 19 55° 100% - - 55° 55.1° 46° - - -
2/27 10:00am 210 16 G 21 55° 100% - - 55° 55.1° 46° - - -
2/27 9:50am 203 15 G 23 55° 100% - - 55° 55.1° 46° - - -
2/27 9:40am 211 14 G 23 55° 100% - - 55° 55.1° 46° - - -
2/27 9:30am 216 15 G 21 55° 100% - - 55° 55.1° 46° - - -
2/27 9:20am 214 16 G 24 55° 100% - - 55° 55.1° 46° - - -
2/27 9:10am 209 15 G 25 55° 100% - - 55° 55.1° 46° - - -
2/27 9:00am 210 16 G 24 55° 100% - - 55° 55.1° 46° - - -
2/27 8:50am 195 14 G 22 55° 100% - - 55° 55.1° 46° - - -
2/27 8:40am 203 12 G 18 55° 100% - - 55° 55.1° 46° - - -
2/27 8:30am 212 13 G 18 55° 100% - - 55° 55.1° 46° - - -
2/27 8:20am 209 13 G 20 55° 100% - - 55° 55.1° 46° - - -
2/27 8:10am 208 11 G 17 55° 100% - - 55° 55.1° 46° - - -
2/27 8:00am 212 13 G 19 55° 100% - - 55° 55.1° 46° - - -
2/27 7:50am 213 13 G 19 55° 100% - - 55° 55.1° 46° - - -
2/27 7:40am 209 14 G 21 55° 100% - - 55° 55.1° 46° - - -
2/27 7:30am 214 17 G 26 55° 100% - - 55° 55.1° 46° - - -
2/27 7:20am 215 15 G 22 55° 100% - - 55° 55.1° 46° - - -
2/27 7:10am 214 15 G 22 55° 100% - - 55° 55.1° 46° - - -
2/27 7:00am 222 14 G 22 55° 100% - - 55° 55.1° 46° - - -
2/27 6:50am 214 16 G 25 55° 100% - - 55° 55° 46° - - -
2/27 6:40am 212 14 G 24 55° 100% - - 55° 55° 46° - - -
2/27 6:30am 214 15 G 22 55° 100% - - 55° 54.9° 46° - - -
2/27 6:20am 210 14 G 22 55° 100% - - 55° 54.8° 46° - - -
2/27 6:10am 209 13 G 21 55° 100% - - 55° 54.8° 46° - - -
2/27 6:00am 203 10 G 18 54° 100% - - 54° 54.5° 46° - - -
2/27 5:50am 205 7 G 11 54° 100% - - 54° 54.2° 46° - - -
2/27 5:40am 202 8 G 12 54° 100% - - 54° 54.1° 46° - - -
2/27 5:30am 197 7 G 12 53° 100% - - 53° 53.7° 46° - - -
2/27 5:20am 124 3 G 7 52° 100% - - 52° 52° 46° - - -
2/27 5:10am 88 4 G 10 51° 100% - - 51° 51.4° 46° - - -
2/27 5:00am 70 6 G 12 51° 100% - - 51° 51.4° 46° - - -
2/27 4:50am 51 4 G 9 51° 100% - - 51° 51.1° 46° - - -
2/27 4:40am 81 8 G 16 51° 100% - - 51° 51.1° 46° - - -
2/27 4:30am 70 10 G 14 50° 100% - - 50° 51° 46° - - -
2/27 4:20am 62 12 G 18 50° 100% - - 50° 50.6° 46° - - -
2/27 4:10am 55 11 G 15 50° 100% - - 50° 50.6° 46° - - -
2/27 4:00am 46 12 G 17 49° 100% - - 49° 49.5° 46° - - -
2/27 3:50am 40 12 G 17 49° 100% - - 49° 49.4° 46° - - -
2/27 3:40am 37 13 G 15 48° 100% - - 48° 49.1° 46° - - -
2/27 3:30am 40 12 G 14 48° 100% - - 48° 48.3° 46° - - -
2/27 3:20am 36 12 G 14 48° 100% - - 48° 48.3° 46° - - -
2/27 3:10am 37 12 G 14 47° 100% - - 47° 48.3° 46° - - -
2/27 3:00am 35 12 G 14 47° 100% - - 47° 48.3° 46° - - -
2/27 2:50am 31 12 G 14 47° 100% - - 47° 48.3° 46° - - -
2/27 2:40am 33 12 G 14 47° 100% - - 47° 48.3° 46° - - -
2/27 2:30am 32 12 G 15 47° 100% - - 47° 48.3° 46° - - -
2/27 2:20am 30 11 G 15 47° 100% - - 47° 48.3° 46° - - -
2/27 2:10am 29 13 G 15 47° 100% - - 47° 48.3° 46° - - -
2/27 2:00am 28 13 G 15 46° 100% - - 46° 48.3° 46° - - -
2/27 1:50am 28 12 G 14 47° 100% - - 47° 48.3° 46° - - -
2/27 1:40am 36 12 G 14 47° 100% - - 47° 48.3° 46° - - -
2/27 1:30am 40 12 G 15 47° 100% - - 47° 48.3° 46° - - -
2/27 1:20am 41 13 G 15 47° 100% - - 47° 48.3° 46° - - -
2/27 1:10am 42 12 G 15 47° 100% - - 47° 48.3° 46° - - -
2/27 1:00am 40 13 G 15 46° 100% - - 46° 48.3° 46° - - -
2/27 12:50am 40 12 G 14 47° 100% - - 47° 48.3° 46.2° - - -
2/27 12:40am 43 11 G 14 47° 96% - - 46° 48.3° 46.8° - - -
2/27 12:30am 40 10 G 12 47° 92% - - 45° 48.3° 46.9° - - -
2/27 12:20am 31 11 G 13 48° 89% - - 45° 48.3° 47.3° - - -
2/27 12:10am 30 11 G 12 48° 88% - - 45° 48.3° 47.3° - - -
2/27 12:00am 28 11 G 12 47° 90% - - 45° 55.6° 47.2° - - -
2/26 11:50pm 27 11 G 12 48° 90% - - 45° 55.6° 47.2° - - -
2/26 11:40pm 31 10 G 12 49° 85% - - 45° 55.6° 47.2° - - -
2/26 11:30pm 39 9 G 11 49° 87% - - 45° 55.6° 47.2° - - -
2/26 11:20pm 29 7 G 9 48° 89% - - 45° 55.6° 47.2° - - -
2/26 11:10pm 36 6 G 9 49° 86% - - 45° 55.6° 47.2° - - -
2/26 11:00pm 38 5 G 7 49° 85% - - 45° 55.6° 47.2° - - -
2/26 10:50pm 51 4 G 7 49° 85% - - 45° 55.6° 47.2° - - -
2/26 10:40pm 61 4 G 6 49° 85% - - 45° 55.6° 47.2° - - -
2/26 10:30pm 65 3 G 5 49° 85% - - 45° 55.6° 47.2° - - -
2/26 10:20pm 57 4 G 5 49° 85% - - 45° 55.6° 47.2° - - -
2/26 10:10pm 23 4 G 6 49° 85% - - 45° 55.6° 47.2° - - -
2/26 10:00pm 37 4 G 6 50° 82% - - 44° 55.6° 47.2° - - -
2/26 9:50pm 58 2 G 3 50° 79% - - 44° 55.6° 47.2° - - -
2/26 9:40pm 45 1 G 2 50° 81% - - 44° 55.6° 47.2° - - -
2/26 9:30pm 48 1 G 2 50° 82% - - 44° 55.6° 47.2° - - -
2/26 9:20pm 63 0 G 1 50° 83% - - 45° 55.6° 47.2° - - -
2/26 9:10pm 95 1 G 2 50° 83% - - 45° 55.6° 47.2° - - -
2/26 9:00pm 151 1 G 2 50° 84% - - 45° 55.6° 47.2° - - -
2/26 8:50pm 183 2 G 3 49° 84% - - 45° 55.6° 47.2° - - -
2/26 8:40pm 197 1 G 2 49° 85% - - 45° 55.6° 47.2° - - -
2/26 8:30pm 161 1 G 4 49° 85% - - 45° 55.6° 47.2° - - -
2/26 8:20pm 127 2 G 4 49° 86% - - 45° 55.6° 47.2° - - -
2/26 8:10pm 160 2 G 3 49° 85% - - 45° 55.6° 47.2° - - -
2/26 8:00pm 199 3 G 4 50° 84% - - 45° 55.6° 47.2° - - -
2/26 7:50pm 221 4 G 6 50° 85% - - 45° 55.6° 47.2° - - -
2/26 7:40pm 225 4 G 5 50° 85% - - 45° 55.6° 47.2° - - -
2/26 7:30pm 225 4 G 6 50° 85% - - 46° 55.6° 47.2° - - -
2/26 7:20pm 233 5 G 7 50° 84% - - 45° 55.6° 47.2° - - -
2/26 7:10pm 229 4 G 5 50° 85% - - 46° 55.6° 47.2° - - -
2/26 7:00pm 234 4 G 6 50° 85% - - 46° 55.6° 47.2° - - -
2/26 6:50pm 236 5 G 7 50° 85% - - 46° 55.6° 47.2° - - -
2/26 6:40pm 246 6 G 8 50° 85% - - 46° 55.6° 47.2° - - -
2/26 6:30pm 250 8 G 12 50° 84% - - 46° 55.6° 47.2° - - -
2/26 6:20pm 253 9 G 11 50° 85% - - 46° 55.6° 47.2° - - -
2/26 6:10pm 253 9 G 11 51° 85% - - 46° 55.6° 47.2° - - -
2/26 6:00pm 254 9 G 11 51° 86% - - 47° 55.6° 47.2° - - -
2/26 5:50pm 257 10 G 12 51° 85% - - 47° 55.6° 47.2° - - -
2/26 5:40pm 255 10 G 13 51° 85% - - 47° 55.6° 47.2° - - -
2/26 5:30pm 253 11 G 15 51° 84% - - 47° 55.6° 47.2° - - -
2/26 5:20pm 253 14 G 18 52° 81% - - 46° 55.6° 47.2° - - -
2/26 5:10pm 250 14 G 18 53° 80% - - 47° 55.6° 47.2° - - -
2/26 5:00pm 243 13 G 18 53° 79% - - 47° 55.6° 47.2° - - -